Marinicki — 9HWU9 — position and weather

sailwx.info

Track history (hours):
 
Tides and Currents Weather Stations Pressure Air Temp Water Temp Dewpoint Dewpoint Depression Visibility Wind Speed Wind Dir Waves Ship Positions

Marinicki

Last reported at 2017-Mar-04 11:19 UTC. Time now 2017-Mar-25 02:04 UTC.
Position N 39°54' W 024°58'.
Warning: this ship's position is 20 days out of date.

Length 225 m; draft 11.6 m.

Type: Cargo ship. MMSI: 249650000.

Date/timePositionNaut miles runAvg speedWind from/ knotsBaromVisibWave heightAir tempDewpointWater temp
2017-Mar-04 11:19N 39°54' W 024°58'1012.9
2017-Mar-04 10:31N 39°47' W 025°08'1613.5
2017-Mar-04 09:20N 39°35' W 025°22'1213.4
2017-Mar-04 08:27N 39°26' W 025°31'1313.6
2017-Mar-04 07:29N 39°16' W 025°42'1313.6
2017-Mar-04 06:32N 39°06' W 025°52'1313.6
2017-Mar-04 05:33N 38°55' W 026°03'1413.7
2017-Mar-04 04:33N 38°45' W 026°14'1413.9
2017-Mar-04 03:33N 38°34' W 026°25'1414.0
2017-Mar-04 02:34N 38°23' W 026°36'1413.9
2017-Mar-04 01:33N 38°12' W 026°48'1413.8
2017-Mar-04 00:33N 38°01' W 026°59'1313.2
2017-Mar-03 23:33N 37°50' W 027°07'1413.5
2017-Mar-03 22:34N 37°38' W 027°15'2013.4
2017-Mar-03 21:03N 37°21' W 027°28'713.4
2017-Mar-03 20:33N 37°15' W 027°32'  
2017-Feb-23 21:06N 00°10' W 050°49'712.5
2017-Feb-23 20:33N 00°09' W 050°55'1212.3
2017-Feb-23 19:33S 00°01' W 051°03'5 4.5
2017-Feb-23 18:32S 00°04' W 051°06'0 0.1
2017-Feb-23 17:26S 00°04' W 051°06'2 1.9
2017-Feb-23 16:33S 00°03' W 051°05'5 4.6
2017-Feb-23 15:33S 00°01' W 051°01'8 7.7
2017-Feb-23 14:33S 00°09' W 051°02'31011.9
2017-Feb-22 12:27S 01°35' W 055°60'1010.8
2017-Feb-22 11:33S 01°31' W 056°09'  
Track history (hours):
 
Tides and Currents Weather Stations Pressure Air Temp Water Temp Dewpoint Dewpoint Depression Visibility Wind Speed Wind Dir Waves Ship Positions

Marinicki

Last reported at 2017-Mar-04 11:19 UTC. Time now 2017-Mar-25 02:04 UTC.
Position N 39°54' W 024°58'.
Warning: this ship's position is 20 days out of date.

Length 225 m; draft 11.6 m.

Type: Cargo ship. MMSI: 249650000.

Date/timePositionNaut miles runAvg speedWind from/ knotsBaromVisibWave heightAir tempDewpointWater temp
2017-Mar-04 11:19N 39°54' W 024°58'1012.9
2017-Mar-04 10:31N 39°47' W 025°08'1613.5
2017-Mar-04 09:20N 39°35' W 025°22'1213.4
2017-Mar-04 08:27N 39°26' W 025°31'1313.6
2017-Mar-04 07:29N 39°16' W 025°42'1313.6
2017-Mar-04 06:32N 39°06' W 025°52'1313.6
2017-Mar-04 05:33N 38°55' W 026°03'1413.7
2017-Mar-04 04:33N 38°45' W 026°14'1413.9
2017-Mar-04 03:33N 38°34' W 026°25'1414.0
2017-Mar-04 02:34N 38°23' W 026°36'1413.9
2017-Mar-04 01:33N 38°12' W 026°48'1413.8
2017-Mar-04 00:33N 38°01' W 026°59'1313.2
2017-Mar-03 23:33N 37°50' W 027°07'1413.5
2017-Mar-03 22:34N 37°38' W 027°15'2013.4
2017-Mar-03 21:03N 37°21' W 027°28'713.4
2017-Mar-03 20:33N 37°15' W 027°32'  
2017-Feb-23 21:06N 00°10' W 050°49'712.5
2017-Feb-23 20:33N 00°09' W 050°55'1212.3
2017-Feb-23 19:33S 00°01' W 051°03'5 4.5
2017-Feb-23 18:32S 00°04' W 051°06'0 0.1
2017-Feb-23 17:26S 00°04' W 051°06'2 1.9
2017-Feb-23 16:33S 00°03' W 051°05'5 4.6
2017-Feb-23 15:33S 00°01' W 051°01'8 7.7
2017-Feb-23 14:33S 00°09' W 051°02'31011.9
2017-Feb-22 12:27S 01°35' W 055°60'1010.8
2017-Feb-22 11:33S 01°31' W 056°09'  

Dump ship's entire track history